AIRPORT ID: KREI

DATE: 2021-12-09 ZULU TIME: 0.55 LOCAL TIME: 16.55


METAR KREI 090055Z AUTO 00000KT 10SM 15/04 A2997

ALTIMETER: A2997 Q1015

DENSITY ALT: 1900 Ft

WIND DIRECT: 330

WIND SPEED: 2 Gust

WIND CONDITIONS:

VISIBILTY: 10SM 9999M

TEMPERATURE: 59 F 15 C

DEW POINT: 40 F 4 C

HUMID: 50%

LCL: Above 5,000 feet

RADIO CHECK: 0

ADVISARIES: 2

GREETINGS: 0

CONVERSATIONS: 48